createdAt,value
2019-03-23T00:01:47.496Z,67.79
2019-03-23T00:04:15.991Z,67.36
2019-03-23T00:06:44.524Z,66.39
2019-03-23T00:09:13.043Z,65.60
2019-03-23T00:11:41.532Z,66.18
2019-03-23T00:14:10.056Z,67.53
2019-03-23T00:16:38.548Z,65.69
2019-03-23T00:19:07.091Z,64.41
2019-03-23T00:21:35.589Z,63.63
2019-03-23T00:24:04.164Z,64.93
2019-03-23T00:26:32.690Z,66.82
2019-03-23T00:29:01.183Z,69.98
2019-03-23T00:31:29.709Z,69.50
2019-03-23T00:33:58.206Z,67.64
2019-03-23T00:36:26.712Z,66.49
2019-03-23T00:38:55.232Z,64.94
2019-03-23T00:41:23.724Z,64.36
2019-03-23T00:43:52.245Z,64.30
2019-03-23T00:46:20.735Z,64.00
2019-03-23T00:48:49.266Z,63.21
2019-03-23T00:51:17.791Z,63.15
2019-03-23T00:53:46.280Z,62.80
2019-03-23T00:56:17.463Z,63.02
2019-03-23T00:58:45.998Z,62.84
2019-03-23T01:01:14.668Z,62.87
2019-03-23T01:03:43.196Z,63.21
2019-03-23T01:06:11.724Z,63.14
2019-03-23T01:08:40.223Z,63.25
2019-03-23T01:11:08.726Z,63.43
2019-03-23T01:13:37.298Z,64.62
2019-03-23T01:16:05.859Z,63.86
2019-03-23T01:18:34.553Z,63.86
2019-03-23T01:21:03.054Z,64.02
2019-03-23T01:23:31.564Z,64.37
2019-03-23T01:26:00.101Z,64.78
2019-03-23T01:28:28.660Z,64.64
2019-03-23T01:30:57.190Z,64.86
2019-03-23T01:33:25.680Z,64.42
2019-03-23T01:35:54.183Z,64.87
2019-03-23T01:38:22.760Z,66.67
2019-03-23T01:40:51.282Z,65.88
2019-03-23T01:43:19.782Z,65.49
2019-03-23T01:45:48.282Z,65.39
2019-03-23T01:48:16.795Z,65.13
2019-03-23T01:50:45.360Z,64.79
2019-03-23T01:53:13.854Z,66.03
2019-03-23T01:55:42.362Z,65.97
2019-03-23T01:58:10.925Z,65.81
2019-03-23T02:00:39.415Z,66.42
2019-03-23T02:03:07.930Z,66.00
2019-03-23T02:05:36.417Z,65.95
2019-03-23T02:08:05.010Z,65.70
2019-03-23T02:10:33.524Z,65.63
2019-03-23T02:13:01.997Z,65.36
2019-03-23T02:15:30.496Z,65.39
2019-03-23T02:17:58.979Z,65.23
2019-03-23T02:20:27.664Z,65.71
2019-03-23T02:22:56.151Z,65.32
2019-03-23T02:25:24.637Z,65.40
2019-03-23T02:27:53.130Z,65.40
2019-03-23T02:30:21.644Z,65.58
2019-03-23T02:32:50.166Z,65.56
2019-03-23T02:35:18.713Z,65.74
2019-03-23T02:37:47.199Z,65.58
2019-03-23T02:40:15.701Z,65.53
2019-03-23T02:42:44.217Z,65.61
2019-03-23T02:45:13.451Z,65.42
2019-03-23T02:47:41.977Z,66.02
2019-03-23T02:50:11.103Z,66.15
2019-03-23T02:52:39.649Z,66.15
2019-03-23T02:55:11.809Z,67.07
2019-03-23T02:57:40.348Z,69.22
2019-03-23T03:00:13.797Z,70.32
2019-03-23T03:02:42.315Z,69.54
2019-03-23T03:05:11.229Z,68.10
2019-03-23T03:07:43.250Z,66.97
2019-03-23T03:10:13.348Z,66.29
2019-03-23T03:12:41.844Z,66.26
2019-03-23T03:15:10.638Z,65.62
2019-03-23T03:17:39.157Z,65.11
2019-03-23T03:20:10.058Z,65.26
2019-03-23T03:22:38.542Z,65.24
2019-03-23T03:25:08.403Z,65.32
2019-03-23T03:27:36.964Z,66.20
2019-03-23T03:30:10.986Z,67.07
2019-03-23T03:32:39.599Z,67.34
2019-03-23T03:35:08.467Z,71.23
2019-03-23T03:37:36.951Z,73.11
2019-03-23T03:40:09.086Z,71.67
2019-03-23T03:42:37.680Z,70.58
2019-03-23T03:45:07.812Z,69.10
2019-03-23T03:47:36.330Z,68.04
2019-03-23T03:50:09.053Z,67.00
2019-03-23T03:52:37.656Z,66.96
2019-03-23T03:55:07.753Z,66.72
2019-03-23T03:57:36.369Z,66.80
2019-03-23T04:00:07.518Z,67.15
2019-03-23T04:02:36.034Z,68.00
2019-03-23T04:05:05.651Z,68.14
2019-03-23T04:07:34.150Z,70.99
2019-03-23T04:10:02.717Z,72.09
2019-03-23T04:12:31.245Z,73.54
2019-03-23T04:14:59.699Z,74.14
2019-03-23T04:17:28.191Z,71.73
2019-03-23T04:19:56.690Z,70.22
2019-03-23T04:22:25.191Z,71.22
2019-03-23T04:24:53.675Z,72.55
2019-03-23T04:27:22.193Z,72.50
2019-03-23T04:29:50.689Z,73.62
2019-03-23T04:32:19.187Z,74.51
2019-03-23T04:34:47.673Z,73.06
2019-03-23T04:37:16.187Z,71.53
2019-03-23T04:39:44.711Z,74.15
2019-03-23T04:42:13.211Z,75.91
2019-03-23T04:44:41.695Z,76.53
2019-03-23T04:47:10.216Z,77.04
2019-03-23T04:49:38.720Z,75.75
2019-03-23T04:52:07.232Z,75.49
2019-03-23T04:54:38.848Z,74.97
2019-03-23T04:57:06.741Z,73.42
2019-03-23T04:59:35.244Z,75.42
2019-03-23T05:02:04.101Z,75.09
2019-03-23T05:04:32.598Z,75.32
2019-03-23T05:07:01.081Z,74.13
2019-03-23T05:09:29.635Z,73.04
2019-03-23T05:11:58.119Z,73.43
2019-03-23T05:14:26.610Z,73.11
2019-03-23T05:16:55.112Z,73.79
2019-03-23T05:19:23.623Z,73.54
2019-03-23T05:21:52.151Z,73.48
2019-03-23T05:24:20.640Z,72.50
2019-03-23T05:26:49.221Z,73.31
2019-03-23T05:29:17.715Z,72.91
2019-03-23T05:31:46.197Z,72.39
2019-03-23T05:34:14.683Z,72.28
2019-03-23T05:36:43.184Z,72.14
2019-03-23T05:39:11.711Z,72.72
2019-03-23T05:41:40.199Z,71.81
2019-03-23T05:44:08.690Z,71.61
2019-03-23T05:46:37.207Z,72.71
2019-03-23T05:49:05.702Z,73.35
2019-03-23T05:51:34.210Z,72.67
2019-03-23T05:54:02.696Z,71.75
2019-03-23T05:56:31.227Z,71.38
2019-03-23T05:58:59.712Z,71.24
2019-03-23T06:01:28.198Z,70.98
2019-03-23T06:03:56.813Z,72.29
2019-03-23T06:06:25.299Z,73.43
2019-03-23T06:08:55.240Z,72.99
2019-03-23T06:11:25.004Z,72.41
2019-03-23T06:13:53.498Z,72.18
2019-03-23T06:16:22.047Z,71.31
2019-03-23T06:18:50.566Z,70.92
2019-03-23T06:21:19.081Z,70.55
2019-03-23T06:23:47.570Z,70.94
2019-03-23T06:26:16.094Z,71.31
2019-03-23T06:28:44.576Z,71.07
2019-03-23T06:31:13.098Z,70.55
2019-03-23T06:33:41.588Z,70.48
2019-03-23T06:36:10.122Z,70.16
2019-03-23T06:38:38.620Z,70.32
2019-03-23T06:41:07.133Z,70.11
2019-03-23T06:43:35.659Z,71.19
2019-03-23T06:46:04.212Z,70.97
2019-03-23T06:48:32.730Z,70.58
2019-03-23T06:51:03.203Z,71.14
2019-03-23T06:53:31.436Z,70.85
2019-03-23T06:55:59.951Z,71.50
2019-03-23T06:58:28.455Z,71.28
2019-03-23T07:00:56.955Z,70.96
2019-03-23T07:03:25.444Z,71.48
2019-03-23T07:05:53.958Z,71.04
2019-03-23T07:08:31.515Z,70.67
2019-03-23T07:10:52.663Z,71.02
2019-03-23T07:13:21.181Z,71.64
2019-03-23T07:15:49.665Z,71.00
2019-03-23T07:18:18.193Z,70.36
2019-03-23T07:20:46.684Z,72.33
2019-03-23T07:23:16.819Z,72.25
2019-03-23T07:25:45.299Z,72.79
2019-03-23T07:28:13.833Z,72.51
2019-03-23T07:30:42.401Z,71.32
2019-03-23T07:33:10.887Z,71.46
2019-03-23T07:35:39.389Z,70.48
2019-03-23T07:38:07.874Z,69.65
2019-03-23T07:40:36.468Z,71.25
2019-03-23T07:43:05.047Z,71.09
2019-03-23T07:45:33.537Z,69.42
2019-03-23T07:48:02.038Z,68.20
2019-03-23T07:50:30.541Z,67.25
2019-03-23T07:52:59.056Z,67.75
2019-03-23T07:55:27.543Z,67.44
2019-03-23T07:57:56.066Z,68.42
2019-03-23T08:00:24.566Z,68.93
2019-03-23T08:02:53.092Z,68.69
2019-03-23T08:05:21.663Z,68.02
2019-03-23T08:07:50.155Z,68.08
2019-03-23T08:10:32.179Z,68.41
2019-03-23T08:13:00.310Z,70.09
2019-03-23T08:15:29.356Z,71.88
2019-03-23T08:17:58.035Z,74.32
2019-03-23T08:20:26.691Z,73.18
2019-03-23T08:22:55.374Z,70.95
2019-03-23T08:25:23.903Z,68.75
2019-03-23T08:27:52.471Z,67.68
2019-03-23T08:30:20.972Z,68.44
2019-03-23T08:32:49.528Z,69.25
2019-03-23T08:35:18.388Z,68.54
2019-03-23T08:37:46.913Z,69.47
2019-03-23T08:40:15.399Z,67.83
2019-03-23T08:42:43.902Z,66.64
2019-03-23T08:45:12.674Z,66.02
2019-03-23T08:47:41.170Z,65.30
2019-03-23T08:50:09.944Z,64.92
2019-03-23T08:52:38.472Z,63.55
2019-03-23T08:55:07.274Z,63.38
2019-03-23T08:57:35.770Z,64.70
2019-03-23T09:00:07.934Z,63.52
2019-03-23T09:02:36.477Z,64.54
2019-03-23T09:05:06.233Z,62.82
2019-03-23T09:07:34.798Z,60.88
2019-03-23T09:10:05.159Z,60.42
2019-03-23T09:12:33.658Z,60.44
2019-03-23T09:15:02.192Z,59.55
2019-03-23T09:17:30.681Z,60.08
2019-03-23T09:19:59.225Z,57.54
2019-03-23T09:22:27.834Z,57.07
2019-03-23T09:24:57.446Z,56.45
2019-03-23T09:27:25.947Z,54.53
2019-03-23T09:29:56.460Z,56.39
2019-03-23T09:32:24.998Z,56.57
2019-03-23T09:34:53.536Z,56.08
2019-03-23T09:37:22.052Z,54.64
2019-03-23T09:39:50.578Z,53.88
2019-03-23T09:42:19.110Z,56.24
2019-03-23T09:44:47.704Z,56.64
2019-03-23T09:47:17.619Z,54.38
2019-03-23T09:49:46.146Z,51.96
2019-03-23T09:52:16.615Z,50.56
2019-03-23T09:54:45.418Z,49.55
2019-03-23T09:57:13.932Z,50.97
2019-03-23T09:59:42.487Z,49.82
2019-03-23T10:02:11.025Z,49.61
2019-03-23T10:04:39.519Z,48.75
2019-03-23T10:07:08.040Z,48.01
2019-03-23T10:09:38.146Z,48.74
2019-03-23T10:12:06.648Z,47.25
2019-03-23T10:14:35.206Z,47.47
2019-03-23T10:17:03.746Z,46.25
2019-03-23T10:19:32.266Z,45.58
2019-03-23T10:22:00.794Z,46.70
2019-03-23T10:24:29.387Z,47.52
2019-03-23T10:26:57.949Z,44.85
2019-03-23T10:29:26.547Z,45.89
2019-03-23T10:31:55.821Z,44.53
2019-03-23T10:34:24.400Z,46.16
2019-03-23T10:36:53.096Z,44.14
2019-03-23T10:39:21.761Z,42.74
2019-03-23T10:41:50.267Z,42.66
2019-03-23T10:44:18.865Z,42.89
2019-03-23T10:46:47.474Z,42.31
2019-03-23T10:49:16.027Z,42.47
2019-03-23T10:51:44.572Z,40.95
2019-03-23T10:54:13.154Z,39.94
2019-03-23T10:56:41.702Z,41.04
2019-03-23T10:59:10.211Z,40.74
2019-03-23T11:01:38.730Z,39.71
2019-03-23T11:04:07.333Z,38.96
2019-03-23T11:06:35.860Z,38.15
2019-03-23T11:09:06.030Z,39.09
2019-03-23T11:11:34.556Z,40.19
2019-03-23T11:14:03.045Z,39.55
2019-03-23T11:16:31.546Z,39.00
2019-03-23T11:19:00.040Z,37.73
2019-03-23T11:21:28.531Z,38.82
2019-03-23T11:23:57.048Z,36.93
2019-03-23T11:26:28.156Z,36.93
2019-03-23T11:28:56.891Z,36.48
2019-03-23T11:31:25.381Z,41.09
2019-03-23T11:33:53.890Z,38.67
2019-03-23T11:36:22.380Z,38.36
2019-03-23T11:38:50.903Z,35.61
2019-03-23T11:41:19.433Z,34.75
2019-03-23T11:43:47.927Z,35.77
2019-03-23T11:46:17.086Z,34.74
2019-03-23T11:48:45.649Z,34.74
2019-03-23T11:51:14.156Z,33.85
2019-03-23T11:53:42.640Z,33.85
2019-03-23T11:56:11.139Z,33.08
2019-03-23T11:58:39.668Z,32.40
2019-03-23T12:01:08.146Z,32.50
2019-03-23T12:03:36.674Z,32.55
2019-03-23T12:06:05.267Z,33.40
2019-03-23T12:08:33.816Z,41.33
2019-03-23T12:11:03.275Z,38.40
2019-03-23T12:13:31.814Z,34.22
2019-03-23T12:16:00.489Z,32.80
2019-03-23T12:18:28.982Z,32.35
2019-03-23T12:20:57.509Z,31.53
2019-03-23T12:23:26.009Z,31.25
2019-03-23T12:25:55.443Z,31.95
2019-03-23T12:28:23.943Z,31.46
2019-03-23T12:30:52.511Z,31.01
2019-03-23T12:33:21.558Z,30.36
2019-03-23T12:35:50.198Z,30.61
2019-03-23T12:38:18.781Z,31.40
2019-03-23T12:40:47.273Z,30.95
2019-03-23T12:43:16.559Z,32.03
2019-03-23T12:45:45.350Z,31.50
2019-03-23T12:48:13.933Z,30.54
2019-03-23T12:50:42.415Z,30.86
2019-03-23T12:53:10.930Z,30.98
2019-03-23T12:55:39.414Z,32.47
2019-03-23T12:58:07.930Z,33.13
2019-03-23T13:00:36.422Z,35.24
2019-03-23T13:03:04.920Z,34.28
2019-03-23T13:05:33.447Z,32.23
2019-03-23T13:08:01.935Z,32.23
2019-03-23T13:10:30.520Z,33.36
2019-03-23T13:12:59.046Z,32.18
2019-03-23T13:15:27.533Z,31.63
2019-03-23T13:17:57.404Z,31.80
2019-03-23T13:20:26.015Z,32.05
2019-03-23T13:22:55.564Z,30.14
2019-03-23T13:25:24.105Z,31.09
2019-03-23T13:27:52.594Z,30.59
2019-03-23T13:30:21.111Z,30.11
2019-03-23T13:32:52.483Z,30.49
2019-03-23T13:35:21.000Z,29.73
2019-03-23T13:37:49.487Z,29.54
2019-03-23T13:40:18.031Z,30.17
2019-03-23T13:42:46.529Z,29.07
2019-03-23T13:45:17.089Z,29.26
2019-03-23T13:47:45.631Z,30.30
2019-03-23T13:50:15.823Z,29.72
2019-03-23T13:52:44.432Z,29.10
2019-03-23T13:55:24.637Z,30.23
2019-03-23T13:57:53.156Z,30.02
2019-03-23T14:00:21.645Z,30.85
2019-03-23T14:02:51.951Z,32.50
2019-03-23T14:05:20.471Z,32.50
2019-03-23T14:07:48.984Z,32.09
2019-03-23T14:10:17.496Z,31.08
2019-03-23T14:12:45.984Z,31.88
2019-03-23T14:15:14.535Z,31.11
2019-03-23T14:17:43.053Z,31.38
2019-03-23T14:20:11.677Z,31.88
2019-03-23T14:22:40.184Z,31.82
2019-03-23T14:25:08.810Z,32.29
2019-03-23T14:27:37.346Z,31.57
2019-03-23T14:30:09.383Z,32.57
2019-03-23T14:32:37.971Z,33.33
2019-03-23T14:35:07.231Z,33.33
2019-03-23T14:37:35.884Z,33.32
2019-03-23T14:40:07.925Z,32.95
2019-03-23T14:42:37.199Z,32.70
2019-03-23T14:45:08.884Z,31.58
2019-03-23T14:47:37.405Z,31.58
2019-03-23T14:50:07.033Z,31.21
2019-03-23T14:52:35.725Z,31.21
2019-03-23T14:55:04.986Z,31.29
2019-03-23T14:57:33.512Z,31.29
2019-03-23T15:00:02.033Z,31.05
2019-03-23T15:02:30.530Z,33.20
2019-03-23T15:04:59.026Z,31.80
2019-03-23T15:07:27.610Z,32.33
2019-03-23T15:09:56.103Z,31.54
2019-03-23T15:12:24.618Z,32.90
2019-03-23T15:14:53.112Z,31.68
2019-03-23T15:17:21.622Z,31.92
2019-03-23T15:19:50.126Z,32.22
2019-03-23T15:22:18.616Z,34.82
2019-03-23T15:24:47.137Z,33.61
2019-03-23T15:27:15.617Z,33.22
2019-03-23T15:29:44.146Z,32.26
2019-03-23T15:32:12.627Z,32.81
2019-03-23T15:34:41.110Z,33.59
2019-03-23T15:37:09.617Z,32.37
2019-03-23T15:39:38.099Z,32.47
2019-03-23T15:42:06.633Z,31.60
2019-03-23T15:44:35.147Z,31.55
2019-03-23T15:47:03.646Z,31.55
2019-03-23T15:49:32.161Z,31.77
2019-03-23T15:52:00.645Z,32.38
2019-03-23T15:54:29.153Z,32.29
2019-03-23T15:56:57.750Z,33.20
2019-03-23T15:59:26.263Z,33.20
2019-03-23T16:01:54.781Z,32.95
2019-03-23T16:04:23.269Z,33.83
2019-03-23T16:06:51.769Z,34.05
2019-03-23T16:09:20.292Z,34.61
2019-03-23T16:11:48.781Z,35.79
2019-03-23T16:14:17.310Z,36.85
2019-03-23T16:16:45.807Z,36.52
2019-03-23T16:19:14.535Z,36.10
2019-03-23T16:21:43.029Z,37.07
2019-03-23T16:24:11.512Z,37.20
2019-03-23T16:26:40.036Z,37.23
2019-03-23T16:29:09.669Z,37.44
2019-03-23T16:31:38.424Z,37.20
2019-03-23T16:34:06.914Z,38.03
2019-03-23T16:36:35.437Z,38.42
2019-03-23T16:39:05.104Z,37.82
2019-03-23T16:41:33.907Z,38.27
2019-03-23T16:44:02.510Z,38.08
2019-03-23T16:46:30.992Z,38.12
2019-03-23T16:49:00.401Z,38.41
2019-03-23T16:51:28.999Z,38.85
2019-03-23T16:53:57.526Z,39.70
2019-03-23T16:56:26.016Z,39.37
2019-03-23T16:58:54.604Z,39.36
2019-03-23T17:01:23.132Z,39.73
2019-03-23T17:03:51.619Z,39.99
2019-03-23T17:06:20.127Z,40.20
2019-03-23T17:08:48.611Z,40.26
2019-03-23T17:11:17.130Z,40.34
2019-03-23T17:13:45.630Z,40.87
2019-03-23T17:16:14.160Z,40.67
2019-03-23T17:18:43.191Z,40.77
2019-03-23T17:21:11.685Z,41.01
2019-03-23T17:23:40.189Z,41.19
2019-03-23T17:26:08.713Z,41.37
2019-03-23T17:28:37.201Z,41.85
2019-03-23T17:31:05.708Z,42.16
2019-03-23T17:33:34.196Z,42.00
2019-03-23T17:36:02.797Z,42.54
2019-03-23T17:38:31.287Z,43.72
2019-03-23T17:40:59.811Z,44.93
2019-03-23T17:43:28.351Z,45.77
2019-03-23T17:45:56.878Z,45.57
2019-03-23T17:48:25.375Z,45.88
2019-03-23T17:50:53.881Z,45.94
2019-03-23T17:53:22.878Z,46.67
2019-03-23T17:55:51.370Z,47.75
2019-03-23T17:58:19.895Z,47.54
2019-03-23T18:00:48.481Z,47.93
2019-03-23T18:03:21.487Z,48.81
2019-03-23T18:05:50.095Z,48.76
2019-03-23T18:08:18.667Z,49.14
2019-03-23T18:10:47.210Z,49.74
2019-03-23T18:13:16.692Z,49.69
2019-03-23T18:15:45.422Z,49.57
2019-03-23T18:18:14.252Z,50.02
2019-03-23T18:20:42.767Z,50.02
2019-03-23T18:23:11.615Z,50.34
2019-03-23T18:25:40.139Z,51.12
2019-03-23T18:28:08.622Z,51.16
2019-03-23T18:30:41.629Z,51.12
2019-03-23T18:33:10.482Z,51.84
2019-03-23T18:35:38.982Z,51.43
2019-03-23T18:38:07.747Z,51.78
2019-03-23T18:40:36.646Z,51.37
2019-03-23T18:43:06.009Z,52.04
2019-03-23T18:45:36.421Z,52.31
2019-03-23T18:48:05.534Z,52.40
2019-03-23T18:50:35.601Z,52.85
2019-03-23T18:53:04.464Z,53.01
2019-03-23T18:55:32.968Z,52.76
2019-03-23T18:58:01.487Z,52.48
2019-03-23T19:00:37.302Z,52.56
2019-03-23T19:03:06.000Z,52.51
2019-03-23T19:05:35.227Z,52.91
2019-03-23T19:08:04.173Z,53.11
2019-03-23T19:10:32.821Z,53.09
2019-03-23T19:13:01.317Z,53.71
2019-03-23T19:15:29.820Z,54.10
2019-03-23T19:17:58.379Z,54.17
2019-03-23T19:20:26.902Z,53.86
2019-03-23T19:22:55.398Z,54.09
2019-03-23T19:25:24.012Z,54.96
2019-03-23T19:27:52.587Z,55.00
2019-03-23T19:30:21.546Z,54.81
2019-03-23T19:32:50.050Z,54.87
2019-03-23T19:35:18.574Z,54.47
2019-03-23T19:37:47.088Z,54.04
2019-03-23T19:40:16.702Z,54.28
2019-03-23T19:42:45.260Z,53.84
2019-03-23T19:45:15.083Z,53.28
2019-03-23T19:47:45.980Z,53.13
2019-03-23T19:50:16.392Z,53.41
2019-03-23T19:52:44.914Z,53.31
2019-03-23T19:55:13.481Z,53.43
2019-03-23T19:57:41.989Z,53.95
2019-03-23T20:00:12.617Z,54.69
2019-03-23T20:02:41.278Z,55.57
2019-03-23T20:05:10.013Z,55.42
2019-03-23T20:07:39.200Z,54.43
2019-03-23T20:10:10.246Z,53.67
2019-03-23T20:12:40.161Z,53.67
2019-03-23T20:15:09.312Z,54.10
2019-03-23T20:17:37.973Z,54.26
2019-03-23T20:20:08.220Z,54.22
2019-03-23T20:22:36.755Z,54.14
2019-03-23T20:25:09.662Z,54.78
2019-03-23T20:27:38.196Z,54.55
2019-03-23T20:30:09.736Z,54.99
2019-03-23T20:32:38.450Z,55.46
2019-03-23T20:35:08.002Z,56.27
2019-03-23T20:37:36.507Z,56.15
2019-03-23T20:40:07.325Z,56.46
2019-03-23T20:42:35.815Z,56.15
2019-03-23T20:45:07.165Z,55.82
2019-03-23T20:47:35.671Z,56.04
2019-03-23T20:50:05.149Z,56.17
2019-03-23T20:52:33.641Z,56.17
2019-03-23T20:55:02.498Z,56.53
2019-03-23T20:57:37.346Z,56.59
2019-03-23T21:00:01.208Z,56.71
2019-03-23T21:02:29.733Z,56.41
2019-03-23T21:04:58.238Z,56.53
2019-03-23T21:07:26.743Z,56.75
2019-03-23T21:09:56.915Z,57.24
2019-03-23T21:12:27.252Z,57.19
2019-03-23T21:14:55.620Z,57.17
2019-03-23T21:17:24.144Z,57.39
2019-03-23T21:19:52.675Z,57.48
2019-03-23T21:22:21.229Z,58.06
2019-03-23T21:24:49.753Z,58.67
2019-03-23T21:27:18.250Z,59.26
2019-03-23T21:29:46.775Z,58.88
2019-03-23T21:32:15.292Z,58.98
2019-03-23T21:34:43.777Z,58.97
2019-03-23T21:37:12.282Z,59.79
2019-03-23T21:39:40.771Z,59.22
2019-03-23T21:42:09.293Z,59.10
2019-03-23T21:44:37.781Z,58.75
2019-03-23T21:47:06.282Z,58.72
2019-03-23T21:49:34.776Z,59.08
2019-03-23T21:52:03.299Z,60.97
2019-03-23T21:54:31.884Z,61.04
2019-03-23T21:57:00.414Z,60.38
2019-03-23T21:59:28.918Z,60.23
2019-03-23T22:01:57.424Z,59.97
2019-03-23T22:04:25.943Z,59.89
2019-03-23T22:06:57.226Z,59.88
2019-03-23T22:09:25.750Z,59.69
2019-03-23T22:11:54.352Z,59.71
2019-03-23T22:14:22.871Z,59.93
2019-03-23T22:16:51.396Z,60.54
2019-03-23T22:19:19.905Z,60.21
2019-03-23T22:21:48.433Z,60.32
2019-03-23T22:24:16.930Z,60.28
2019-03-23T22:26:45.452Z,60.85
2019-03-23T22:29:13.982Z,60.70
2019-03-23T22:31:42.477Z,60.93
2019-03-23T22:34:11.001Z,60.90
2019-03-23T22:36:39.487Z,60.83
2019-03-23T22:39:08.149Z,60.71
2019-03-23T22:41:36.731Z,60.88
2019-03-23T22:44:05.372Z,61.54
2019-03-23T22:46:33.863Z,62.37
2019-03-23T22:49:02.391Z,61.75
2019-03-23T22:51:30.920Z,60.97
2019-03-23T22:53:59.415Z,60.69
2019-03-23T22:56:27.921Z,60.07
2019-03-23T22:58:56.418Z,60.15
2019-03-23T23:01:25.138Z,59.48
2019-03-23T23:03:53.649Z,58.62
2019-03-23T23:06:22.271Z,58.68
2019-03-23T23:08:50.760Z,59.37
2019-03-23T23:11:19.254Z,59.13
2019-03-23T23:13:47.740Z,58.68
2019-03-23T23:16:16.789Z,58.63
2019-03-23T23:18:45.286Z,58.33
2019-03-23T23:21:13.806Z,57.84
2019-03-23T23:23:42.331Z,59.13
2019-03-23T23:26:10.861Z,60.04
2019-03-23T23:28:40.927Z,61.52
2019-03-23T23:31:09.473Z,62.93
2019-03-23T23:33:39.408Z,64.47
2019-03-23T23:36:07.965Z,64.29
2019-03-23T23:38:36.475Z,65.97
2019-03-23T23:41:05.041Z,67.68
2019-03-23T23:43:33.534Z,67.57
2019-03-23T23:46:02.021Z,68.03
2019-03-23T23:48:30.527Z,68.75
2019-03-23T23:50:59.012Z,70.35
2019-03-23T23:53:27.535Z,70.47
2019-03-23T23:55:56.020Z,70.78
2019-03-23T23:58:24.522Z,70.93
